sensor_id;sensor_type;location;lat;lon;timestamp;temperature;humidity
27114;DHT22;14648;49.730;8.614;2023-12-04T00:01:21;-0.70;53.40
27114;DHT22;14648;49.730;8.614;2023-12-04T00:03:47;-0.70;53.40
27114;DHT22;14648;49.730;8.614;2023-12-04T00:06:13;-0.70;53.40
27114;DHT22;14648;49.730;8.614;2023-12-04T00:08:39;-0.70;53.40
27114;DHT22;14648;49.730;8.614;2023-12-04T00:11:05;-0.70;53.40
27114;DHT22;14648;49.730;8.614;2023-12-04T00:13:32;-0.80;53.30
27114;DHT22;14648;49.730;8.614;2023-12-04T00:15:58;-0.80;53.40
27114;DHT22;14648;49.730;8.614;2023-12-04T00:18:24;-0.80;53.50
27114;DHT22;14648;49.730;8.614;2023-12-04T00:20:51;-0.80;53.30
27114;DHT22;14648;49.730;8.614;2023-12-04T00:23:16;-0.80;53.40
27114;DHT22;14648;49.730;8.614;2023-12-04T00:25:42;-0.80;53.50
27114;DHT22;14648;49.730;8.614;2023-12-04T00:28:08;-0.90;53.40
27114;DHT22;14648;49.730;8.614;2023-12-04T00:30:34;-0.80;53.40
27114;DHT22;14648;49.730;8.614;2023-12-04T00:33:00;-0.80;53.30
27114;DHT22;14648;49.730;8.614;2023-12-04T00:35:26;-0.90;53.30
27114;DHT22;14648;49.730;8.614;2023-12-04T00:37:51;-0.90;53.40
27114;DHT22;14648;49.730;8.614;2023-12-04T00:40:17;-0.90;53.30
27114;DHT22;14648;49.730;8.614;2023-12-04T00:42:43;-0.90;53.40
27114;DHT22;14648;49.730;8.614;2023-12-04T00:45:09;-1.00;53.20
27114;DHT22;14648;49.730;8.614;2023-12-04T00:47:35;-1.00;53.30
27114;DHT22;14648;49.730;8.614;2023-12-04T00:50:00;-1.00;53.30
27114;DHT22;14648;49.730;8.614;2023-12-04T00:52:26;-1.00;53.30
27114;DHT22;14648;49.730;8.614;2023-12-04T00:54:52;-1.00;53.30
27114;DHT22;14648;49.730;8.614;2023-12-04T00:57:19;-1.10;53.30
27114;DHT22;14648;49.730;8.614;2023-12-04T00:59:45;-1.10;53.40
27114;DHT22;14648;49.730;8.614;2023-12-04T01:02:11;-1.10;53.30
27114;DHT22;14648;49.730;8.614;2023-12-04T01:04:40;-1.10;53.30
27114;DHT22;14648;49.730;8.614;2023-12-04T01:07:07;-1.20;53.30
27114;DHT22;14648;49.730;8.614;2023-12-04T01:09:35;-1.20;53.40
27114;DHT22;14648;49.730;8.614;2023-12-04T01:12:01;-1.20;53.50
27114;DHT22;14648;49.730;8.614;2023-12-04T01:14:28;-1.20;53.50
27114;DHT22;14648;49.730;8.614;2023-12-04T01:16:53;-1.20;53.40
27114;DHT22;14648;49.730;8.614;2023-12-04T01:19:19;-1.20;53.40
27114;DHT22;14648;49.730;8.614;2023-12-04T01:21:45;-1.20;53.40
27114;DHT22;14648;49.730;8.614;2023-12-04T01:24:10;-1.20;53.20
27114;DHT22;14648;49.730;8.614;2023-12-04T01:26:36;-1.20;53.20
27114;DHT22;14648;49.730;8.614;2023-12-04T01:29:02;-1.20;53.20
27114;DHT22;14648;49.730;8.614;2023-12-04T01:31:28;-1.20;53.30
27114;DHT22;14648;49.730;8.614;2023-12-04T01:33:53;-1.30;53.20
27114;DHT22;14648;49.730;8.614;2023-12-04T01:36:19;-1.20;53.30
27114;DHT22;14648;49.730;8.614;2023-12-04T01:38:45;-1.30;53.30
27114;DHT22;14648;49.730;8.614;2023-12-04T01:41:10;-1.30;53.30
27114;DHT22;14648;49.730;8.614;2023-12-04T01:43:36;-1.30;53.30
27114;DHT22;14648;49.730;8.614;2023-12-04T01:46:02;-1.30;53.30
27114;DHT22;14648;49.730;8.614;2023-12-04T01:48:28;-1.30;53.30
27114;DHT22;14648;49.730;8.614;2023-12-04T01:50:55;-1.30;53.30
27114;DHT22;14648;49.730;8.614;2023-12-04T01:53:22;-1.30;53.20
27114;DHT22;14648;49.730;8.614;2023-12-04T01:55:49;-1.30;53.20
27114;DHT22;14648;49.730;8.614;2023-12-04T01:58:15;-1.30;53.30
27114;DHT22;14648;49.730;8.614;2023-12-04T02:00:41;-1.30;53.30
27114;DHT22;14648;49.730;8.614;2023-12-04T02:03:08;-1.30;53.20
27114;DHT22;14648;49.730;8.614;2023-12-04T02:05:35;-1.30;53.20
27114;DHT22;14648;49.730;8.614;2023-12-04T02:08:01;-1.30;53.20
27114;DHT22;14648;49.730;8.614;2023-12-04T02:10:26;-1.40;53.10
27114;DHT22;14648;49.730;8.614;2023-12-04T02:12:52;-1.40;53.20
27114;DHT22;14648;49.730;8.614;2023-12-04T02:15:18;-1.30;53.30
27114;DHT22;14648;49.730;8.614;2023-12-04T02:17:46;-1.40;53.20
27114;DHT22;14648;49.730;8.614;2023-12-04T02:20:13;-1.40;53.10
27114;DHT22;14648;49.730;8.614;2023-12-04T02:22:39;-1.30;53.20
27114;DHT22;14648;49.730;8.614;2023-12-04T02:25:06;-1.40;53.20
27114;DHT22;14648;49.730;8.614;2023-12-04T02:27:40;-1.40;53.20
27114;DHT22;14648;49.730;8.614;2023-12-04T02:30:11;-1.40;53.20
27114;DHT22;14648;49.730;8.614;2023-12-04T02:32:42;-1.30;53.30
27114;DHT22;14648;49.730;8.614;2023-12-04T02:35:14;-1.30;53.30
27114;DHT22;14648;49.730;8.614;2023-12-04T02:37:42;-1.30;53.30
27114;DHT22;14648;49.730;8.614;2023-12-04T02:40:08;-1.30;53.30
27114;DHT22;14648;49.730;8.614;2023-12-04T02:42:36;-1.30;53.30
27114;DHT22;14648;49.730;8.614;2023-12-04T02:45:02;-1.40;53.20
27114;DHT22;14648;49.730;8.614;2023-12-04T02:47:28;-1.30;53.40
27114;DHT22;14648;49.730;8.614;2023-12-04T02:49:53;-1.30;53.40
27114;DHT22;14648;49.730;8.614;2023-12-04T02:52:19;-1.40;53.30
27114;DHT22;14648;49.730;8.614;2023-12-04T02:54:45;-1.40;53.30
27114;DHT22;14648;49.730;8.614;2023-12-04T02:57:10;-1.40;53.30
27114;DHT22;14648;49.730;8.614;2023-12-04T02:59:36;-1.40;53.30
27114;DHT22;14648;49.730;8.614;2023-12-04T03:02:02;-1.40;53.40
27114;DHT22;14648;49.730;8.614;2023-12-04T03:04:29;-1.40;53.40
27114;DHT22;14648;49.730;8.614;2023-12-04T03:06:55;-1.40;53.40
27114;DHT22;14648;49.730;8.614;2023-12-04T03:09:21;-1.40;53.40
27114;DHT22;14648;49.730;8.614;2023-12-04T03:11:47;-1.40;53.40
27114;DHT22;14648;49.730;8.614;2023-12-04T03:14:13;-1.40;53.40
27114;DHT22;14648;49.730;8.614;2023-12-04T03:16:39;-1.40;53.40
27114;DHT22;14648;49.730;8.614;2023-12-04T03:19:05;-1.40;53.40
27114;DHT22;14648;49.730;8.614;2023-12-04T03:21:31;-1.40;53.40
27114;DHT22;14648;49.730;8.614;2023-12-04T03:23:57;-1.40;53.50
27114;DHT22;14648;49.730;8.614;2023-12-04T03:26:22;-1.40;53.50
27114;DHT22;14648;49.730;8.614;2023-12-04T03:28:48;-1.40;53.50
27114;DHT22;14648;49.730;8.614;2023-12-04T03:31:14;-1.40;53.50
27114;DHT22;14648;49.730;8.614;2023-12-04T03:33:40;-1.40;53.50
27114;DHT22;14648;49.730;8.614;2023-12-04T03:36:06;-1.40;53.50
27114;DHT22;14648;49.730;8.614;2023-12-04T03:38:32;-1.40;53.50
27114;DHT22;14648;49.730;8.614;2023-12-04T03:40:58;-1.40;53.50
27114;DHT22;14648;49.730;8.614;2023-12-04T03:43:24;-1.40;53.50
27114;DHT22;14648;49.730;8.614;2023-12-04T03:45:50;-1.40;53.50
27114;DHT22;14648;49.730;8.614;2023-12-04T03:48:15;-1.40;53.50
27114;DHT22;14648;49.730;8.614;2023-12-04T03:50:41;-1.30;53.60
27114;DHT22;14648;49.730;8.614;2023-12-04T03:53:07;-1.40;53.50
27114;DHT22;14648;49.730;8.614;2023-12-04T03:55:32;-1.30;53.60
27114;DHT22;14648;49.730;8.614;2023-12-04T03:57:58;-1.30;53.60
27114;DHT22;14648;49.730;8.614;2023-12-04T04:00:24;-1.30;53.60
27114;DHT22;14648;49.730;8.614;2023-12-04T04:02:50;-1.30;53.70
27114;DHT22;14648;49.730;8.614;2023-12-04T04:05:16;-1.30;53.70
27114;DHT22;14648;49.730;8.614;2023-12-04T04:07:41;-1.30;53.60
27114;DHT22;14648;49.730;8.614;2023-12-04T04:10:08;-1.30;53.60
27114;DHT22;14648;49.730;8.614;2023-12-04T04:12:34;-1.30;53.60
27114;DHT22;14648;49.730;8.614;2023-12-04T04:15:00;-1.30;53.60
27114;DHT22;14648;49.730;8.614;2023-12-04T04:17:26;-1.30;53.70
27114;DHT22;14648;49.730;8.614;2023-12-04T04:19:52;-1.30;53.60
27114;DHT22;14648;49.730;8.614;2023-12-04T04:22:19;-1.30;54.30
27114;DHT22;14648;49.730;8.614;2023-12-04T04:24:46;-1.30;53.70
27114;DHT22;14648;49.730;8.614;2023-12-04T04:27:13;-1.30;53.70
27114;DHT22;14648;49.730;8.614;2023-12-04T04:29:38;-1.30;53.70
27114;DHT22;14648;49.730;8.614;2023-12-04T04:32:05;-1.30;53.70
27114;DHT22;14648;49.730;8.614;2023-12-04T04:34:31;-1.30;53.70
27114;DHT22;14648;49.730;8.614;2023-12-04T04:36:57;-1.30;53.70
27114;DHT22;14648;49.730;8.614;2023-12-04T04:39:23;-1.30;53.70
27114;DHT22;14648;49.730;8.614;2023-12-04T04:41:49;-1.30;53.60
27114;DHT22;14648;49.730;8.614;2023-12-04T04:44:14;-1.30;53.90
27114;DHT22;14648;49.730;8.614;2023-12-04T04:46:40;-1.30;54.00
27114;DHT22;14648;49.730;8.614;2023-12-04T04:49:06;-1.30;54.00
27114;DHT22;14648;49.730;8.614;2023-12-04T04:51:33;-1.30;54.00
27114;DHT22;14648;49.730;8.614;2023-12-04T04:54:01;-1.30;54.00
27114;DHT22;14648;49.730;8.614;2023-12-04T04:56:27;-1.30;53.80
27114;DHT22;14648;49.730;8.614;2023-12-04T04:58:53;-1.20;53.80
27114;DHT22;14648;49.730;8.614;2023-12-04T05:01:19;-1.20;53.80
27114;DHT22;14648;49.730;8.614;2023-12-04T05:03:45;-1.20;53.80
27114;DHT22;14648;49.730;8.614;2023-12-04T05:06:11;-1.20;53.80
27114;DHT22;14648;49.730;8.614;2023-12-04T05:08:36;-1.20;53.80
27114;DHT22;14648;49.730;8.614;2023-12-04T05:11:03;-1.20;53.80
27114;DHT22;14648;49.730;8.614;2023-12-04T05:13:29;-1.20;53.80
27114;DHT22;14648;49.730;8.614;2023-12-04T05:15:55;-1.20;53.90
27114;DHT22;14648;49.730;8.614;2023-12-04T05:18:21;-1.20;53.80
27114;DHT22;14648;49.730;8.614;2023-12-04T05:20:47;-1.20;53.80
27114;DHT22;14648;49.730;8.614;2023-12-04T05:23:13;-1.20;53.80
27114;DHT22;14648;49.730;8.614;2023-12-04T05:25:38;-1.10;53.80
27114;DHT22;14648;49.730;8.614;2023-12-04T05:28:04;-1.20;53.80
27114;DHT22;14648;49.730;8.614;2023-12-04T05:30:30;-1.20;53.80
27114;DHT22;14648;49.730;8.614;2023-12-04T05:32:56;-1.20;53.80
27114;DHT22;14648;49.730;8.614;2023-12-04T05:35:22;-1.20;53.80
27114;DHT22;14648;49.730;8.614;2023-12-04T05:37:48;-1.20;53.80
27114;DHT22;14648;49.730;8.614;2023-12-04T05:40:14;-1.20;53.80
27114;DHT22;14648;49.730;8.614;2023-12-04T05:42:40;-1.20;53.80
27114;DHT22;14648;49.730;8.614;2023-12-04T05:45:06;-1.20;53.80
27114;DHT22;14648;49.730;8.614;2023-12-04T05:47:33;-1.20;53.80
27114;DHT22;14648;49.730;8.614;2023-12-04T05:50:00;-1.20;53.90
27114;DHT22;14648;49.730;8.614;2023-12-04T05:52:26;-1.20;54.00
27114;DHT22;14648;49.730;8.614;2023-12-04T05:54:52;-1.20;54.00
27114;DHT22;14648;49.730;8.614;2023-12-04T05:57:17;-1.20;54.00
27114;DHT22;14648;49.730;8.614;2023-12-04T05:59:43;-1.20;53.90
27114;DHT22;14648;49.730;8.614;2023-12-04T06:02:09;-1.20;54.00
27114;DHT22;14648;49.730;8.614;2023-12-04T06:04:35;-1.30;53.90
27114;DHT22;14648;49.730;8.614;2023-12-04T06:07:00;-1.30;54.50
27114;DHT22;14648;49.730;8.614;2023-12-04T06:09:26;-1.40;54.10
27114;DHT22;14648;49.730;8.614;2023-12-04T06:11:52;-1.40;54.10
27114;DHT22;14648;49.730;8.614;2023-12-04T06:14:18;-1.40;54.20
27114;DHT22;14648;49.730;8.614;2023-12-04T06:16:43;-1.40;54.20
27114;DHT22;14648;49.730;8.614;2023-12-04T06:19:09;-1.40;54.10
27114;DHT22;14648;49.730;8.614;2023-12-04T06:21:35;-1.40;54.10
27114;DHT22;14648;49.730;8.614;2023-12-04T06:24:01;-1.40;54.00
27114;DHT22;14648;49.730;8.614;2023-12-04T06:26:27;-1.50;54.20
27114;DHT22;14648;49.730;8.614;2023-12-04T06:28:53;-1.50;54.50
27114;DHT22;14648;49.730;8.614;2023-12-04T06:31:19;-1.50;54.40
27114;DHT22;14648;49.730;8.614;2023-12-04T06:33:45;-1.50;54.40
27114;DHT22;14648;49.730;8.614;2023-12-04T06:36:12;-1.50;54.40
27114;DHT22;14648;49.730;8.614;2023-12-04T06:38:40;-1.40;54.20
27114;DHT22;14648;49.730;8.614;2023-12-04T06:41:07;-1.50;54.10
27114;DHT22;14648;49.730;8.614;2023-12-04T06:43:34;-1.50;54.30
27114;DHT22;14648;49.730;8.614;2023-12-04T06:46:00;-1.60;54.40
27114;DHT22;14648;49.730;8.614;2023-12-04T06:48:26;-1.60;54.40
27114;DHT22;14648;49.730;8.614;2023-12-04T06:50:52;-1.50;54.40
27114;DHT22;14648;49.730;8.614;2023-12-04T06:53:18;-1.50;54.40
27114;DHT22;14648;49.730;8.614;2023-12-04T06:55:44;-1.40;54.30
27114;DHT22;14648;49.730;8.614;2023-12-04T06:58:10;-1.50;54.20
27114;DHT22;14648;49.730;8.614;2023-12-04T07:00:35;-1.40;54.20
27114;DHT22;14648;49.730;8.614;2023-12-04T07:03:02;-1.40;54.10
27114;DHT22;14648;49.730;8.614;2023-12-04T07:05:28;-1.40;54.10
27114;DHT22;14648;49.730;8.614;2023-12-04T07:07:53;-1.40;54.20
27114;DHT22;14648;49.730;8.614;2023-12-04T07:10:19;-1.40;54.30
27114;DHT22;14648;49.730;8.614;2023-12-04T07:12:45;-1.40;54.40
27114;DHT22;14648;49.730;8.614;2023-12-04T07:15:11;-1.30;54.40
27114;DHT22;14648;49.730;8.614;2023-12-04T07:17:38;-1.30;54.40
27114;DHT22;14648;49.730;8.614;2023-12-04T07:20:05;-1.30;54.40
27114;DHT22;14648;49.730;8.614;2023-12-04T07:22:35;-1.20;54.30
27114;DHT22;14648;49.730;8.614;2023-12-04T07:25:00;-1.20;54.30
27114;DHT22;14648;49.730;8.614;2023-12-04T07:27:27;-1.20;54.30
27114;DHT22;14648;49.730;8.614;2023-12-04T07:29:53;-1.20;54.20
27114;DHT22;14648;49.730;8.614;2023-12-04T07:32:19;-1.10;54.40
27114;DHT22;14648;49.730;8.614;2023-12-04T07:34:45;-1.10;54.40
27114;DHT22;14648;49.730;8.614;2023-12-04T07:37:11;-1.10;54.40
27114;DHT22;14648;49.730;8.614;2023-12-04T07:39:37;-1.10;54.40
27114;DHT22;14648;49.730;8.614;2023-12-04T07:42:03;-1.00;54.40
27114;DHT22;14648;49.730;8.614;2023-12-04T07:44:29;-1.00;54.40
27114;DHT22;14648;49.730;8.614;2023-12-04T07:46:55;-0.90;54.40
27114;DHT22;14648;49.730;8.614;2023-12-04T07:49:21;-0.90;54.50
27114;DHT22;14648;49.730;8.614;2023-12-04T07:51:46;-0.90;54.50
27114;DHT22;14648;49.730;8.614;2023-12-04T07:54:12;-0.90;54.40
27114;DHT22;14648;49.730;8.614;2023-12-04T07:56:38;-0.80;54.40
27114;DHT22;14648;49.730;8.614;2023-12-04T07:59:04;-0.80;54.40
27114;DHT22;14648;49.730;8.614;2023-12-04T08:01:30;-0.80;54.50
27114;DHT22;14648;49.730;8.614;2023-12-04T08:03:55;-0.70;54.60
27114;DHT22;14648;49.730;8.614;2023-12-04T08:06:21;-0.70;54.50
27114;DHT22;14648;49.730;8.614;2023-12-04T08:08:47;-0.60;54.60
27114;DHT22;14648;49.730;8.614;2023-12-04T08:11:12;-0.60;54.60
27114;DHT22;14648;49.730;8.614;2023-12-04T08:13:39;-0.60;54.60
27114;DHT22;14648;49.730;8.614;2023-12-04T08:16:12;-0.60;54.60
27114;DHT22;14648;49.730;8.614;2023-12-04T08:18:39;-0.50;54.80
27114;DHT22;14648;49.730;8.614;2023-12-04T08:21:05;-0.50;54.80
27114;DHT22;14648;49.730;8.614;2023-12-04T08:23:31;-0.50;54.80
27114;DHT22;14648;49.730;8.614;2023-12-04T08:25:57;-0.40;54.80
27114;DHT22;14648;49.730;8.614;2023-12-04T08:28:23;-0.40;54.70
27114;DHT22;14648;49.730;8.614;2023-12-04T08:30:48;-0.40;54.80
27114;DHT22;14648;49.730;8.614;2023-12-04T08:33:14;-0.30;54.90
27114;DHT22;14648;49.730;8.614;2023-12-04T08:35:40;-0.30;55.00
27114;DHT22;14648;49.730;8.614;2023-12-04T08:38:06;-0.30;54.90
27114;DHT22;14648;49.730;8.614;2023-12-04T08:40:32;-0.30;54.90
27114;DHT22;14648;49.730;8.614;2023-12-04T08:42:58;-0.30;54.90
27114;DHT22;14648;49.730;8.614;2023-12-04T08:45:23;-0.20;55.00
27114;DHT22;14648;49.730;8.614;2023-12-04T08:47:49;-0.20;55.00
27114;DHT22;14648;49.730;8.614;2023-12-04T08:50:15;-0.20;55.10
27114;DHT22;14648;49.730;8.614;2023-12-04T08:52:42;-0.10;55.20
27114;DHT22;14648;49.730;8.614;2023-12-04T08:55:08;-0.10;55.10
27114;DHT22;14648;49.730;8.614;2023-12-04T08:57:34;-0.10;55.20
27114;DHT22;14648;49.730;8.614;2023-12-04T08:59:59;0.00;55.20
27114;DHT22;14648;49.730;8.614;2023-12-04T09:02:25;0.00;55.20
27114;DHT22;14648;49.730;8.614;2023-12-04T09:04:51;0.10;55.30
27114;DHT22;14648;49.730;8.614;2023-12-04T09:07:17;0.10;55.30
27114;DHT22;14648;49.730;8.614;2023-12-04T09:09:42;0.20;55.30
27114;DHT22;14648;49.730;8.614;2023-12-04T09:12:10;0.20;55.30
27114;DHT22;14648;49.730;8.614;2023-12-04T09:14:36;0.20;55.40
27114;DHT22;14648;49.730;8.614;2023-12-04T09:17:01;0.30;55.50
27114;DHT22;14648;49.730;8.614;2023-12-04T09:19:29;0.30;55.50
27114;DHT22;14648;49.730;8.614;2023-12-04T09:21:55;0.40;55.50
27114;DHT22;14648;49.730;8.614;2023-12-04T09:24:20;0.40;55.50
27114;DHT22;14648;49.730;8.614;2023-12-04T09:26:46;0.40;55.60
27114;DHT22;14648;49.730;8.614;2023-12-04T09:29:18;0.40;55.50
27114;DHT22;14648;49.730;8.614;2023-12-04T09:31:51;0.40;55.60
27114;DHT22;14648;49.730;8.614;2023-12-04T09:34:17;0.40;55.60
27114;DHT22;14648;49.730;8.614;2023-12-04T09:36:44;0.50;55.70
27114;DHT22;14648;49.730;8.614;2023-12-04T09:39:09;0.40;55.70
27114;DHT22;14648;49.730;8.614;2023-12-04T09:41:36;0.50;55.80
27114;DHT22;14648;49.730;8.614;2023-12-04T09:44:02;0.50;55.80
27114;DHT22;14648;49.730;8.614;2023-12-04T09:46:29;0.50;55.90
27114;DHT22;14648;49.730;8.614;2023-12-04T09:48:56;0.50;55.90
27114;DHT22;14648;49.730;8.614;2023-12-04T09:51:24;0.50;55.90
27114;DHT22;14648;49.730;8.614;2023-12-04T09:53:51;0.50;56.00
27114;DHT22;14648;49.730;8.614;2023-12-04T09:56:18;0.50;56.00
27114;DHT22;14648;49.730;8.614;2023-12-04T09:58:45;0.50;55.90
27114;DHT22;14648;49.730;8.614;2023-12-04T10:01:12;0.50;56.00
27114;DHT22;14648;49.730;8.614;2023-12-04T10:03:38;0.60;55.90
27114;DHT22;14648;49.730;8.614;2023-12-04T10:06:06;0.60;55.90
27114;DHT22;14648;49.730;8.614;2023-12-04T10:08:33;0.50;55.90
27114;DHT22;14648;49.730;8.614;2023-12-04T10:10:58;0.60;56.00
27114;DHT22;14648;49.730;8.614;2023-12-04T10:13:24;0.50;55.90
27114;DHT22;14648;49.730;8.614;2023-12-04T10:15:51;0.50;56.10
27114;DHT22;14648;49.730;8.614;2023-12-04T10:18:32;0.60;56.10
27114;DHT22;14648;49.730;8.614;2023-12-04T10:20:59;0.60;56.10
27114;DHT22;14648;49.730;8.614;2023-12-04T10:23:38;0.70;56.10
27114;DHT22;14648;49.730;8.614;2023-12-04T10:26:05;0.70;56.10
27114;DHT22;14648;49.730;8.614;2023-12-04T10:28:33;0.70;56.20
27114;DHT22;14648;49.730;8.614;2023-12-04T10:31:00;0.70;56.20
27114;DHT22;14648;49.730;8.614;2023-12-04T10:33:25;0.80;56.20
27114;DHT22;14648;49.730;8.614;2023-12-04T10:35:52;0.80;56.30
27114;DHT22;14648;49.730;8.614;2023-12-04T10:38:18;0.80;56.20
27114;DHT22;14648;49.730;8.614;2023-12-04T10:40:44;0.90;56.30
27114;DHT22;14648;49.730;8.614;2023-12-04T10:43:23;0.90;56.30
27114;DHT22;14648;49.730;8.614;2023-12-04T10:45:52;1.00;56.30
27114;DHT22;14648;49.730;8.614;2023-12-04T10:48:22;1.00;56.30
27114;DHT22;14648;49.730;8.614;2023-12-04T10:50:49;1.10;56.40
27114;DHT22;14648;49.730;8.614;2023-12-04T10:53:16;1.10;56.40
27114;DHT22;14648;49.730;8.614;2023-12-04T10:55:43;1.00;56.30
27114;DHT22;14648;49.730;8.614;2023-12-04T10:58:14;1.10;56.50
27114;DHT22;14648;49.730;8.614;2023-12-04T11:00:59;1.10;56.50
27114;DHT22;14648;49.730;8.614;2023-12-04T11:03:38;1.10;56.60
27114;DHT22;14648;49.730;8.614;2023-12-04T11:06:18;1.20;56.50
27114;DHT22;14648;49.730;8.614;2023-12-04T11:08:48;1.20;56.40
27114;DHT22;14648;49.730;8.614;2023-12-04T11:11:24;1.20;56.40
27114;DHT22;14648;49.730;8.614;2023-12-04T11:13:59;1.20;56.40
27114;DHT22;14648;49.730;8.614;2023-12-04T11:16:47;1.20;56.30
27114;DHT22;14648;49.730;8.614;2023-12-04T11:19:25;1.10;56.40
27114;DHT22;14648;49.730;8.614;2023-12-04T11:21:58;1.10;56.40
27114;DHT22;14648;49.730;8.614;2023-12-04T11:24:27;1.10;56.40
27114;DHT22;14648;49.730;8.614;2023-12-04T11:26:53;1.10;56.30
27114;DHT22;14648;49.730;8.614;2023-12-04T11:29:22;1.10;56.30
27114;DHT22;14648;49.730;8.614;2023-12-04T11:31:49;1.10;56.30
27114;DHT22;14648;49.730;8.614;2023-12-04T11:34:14;1.00;56.30
27114;DHT22;14648;49.730;8.614;2023-12-04T11:36:44;1.00;56.30
27114;DHT22;14648;49.730;8.614;2023-12-04T11:39:10;1.00;56.30
27114;DHT22;14648;49.730;8.614;2023-12-04T11:41:37;1.00;56.40
27114;DHT22;14648;49.730;8.614;2023-12-04T11:44:03;1.00;56.40
27114;DHT22;14648;49.730;8.614;2023-12-04T11:46:29;1.00;56.50
27114;DHT22;14648;49.730;8.614;2023-12-04T11:49:27;1.00;56.50
27114;DHT22;14648;49.730;8.614;2023-12-04T11:51:57;1.00;56.50
27114;DHT22;14648;49.730;8.614;2023-12-04T11:54:26;1.00;56.50
27114;DHT22;14648;49.730;8.614;2023-12-04T11:56:58;1.10;56.60
27114;DHT22;14648;49.730;8.614;2023-12-04T11:59:25;1.10;56.60
27114;DHT22;14648;49.730;8.614;2023-12-04T12:01:54;1.10;56.70
27114;DHT22;14648;49.730;8.614;2023-12-04T12:04:25;1.10;56.60
27114;DHT22;14648;49.730;8.614;2023-12-04T12:06:52;1.10;56.60
27114;DHT22;14648;49.730;8.614;2023-12-04T12:09:19;1.10;56.70
27114;DHT22;14648;49.730;8.614;2023-12-04T12:11:47;1.10;56.60
27114;DHT22;14648;49.730;8.614;2023-12-04T12:14:14;1.20;56.60
27114;DHT22;14648;49.730;8.614;2023-12-04T12:16:40;1.20;56.70
27114;DHT22;14648;49.730;8.614;2023-12-04T12:19:06;1.20;56.80
27114;DHT22;14648;49.730;8.614;2023-12-04T12:21:32;1.20;56.70
27114;DHT22;14648;49.730;8.614;2023-12-04T12:23:58;1.20;56.80
27114;DHT22;14648;49.730;8.614;2023-12-04T12:26:24;1.30;56.80
27114;DHT22;14648;49.730;8.614;2023-12-04T12:28:49;1.30;56.90
27114;DHT22;14648;49.730;8.614;2023-12-04T12:31:16;1.30;56.80
27114;DHT22;14648;49.730;8.614;2023-12-04T12:33:42;1.30;56.80
27114;DHT22;14648;49.730;8.614;2023-12-04T12:36:08;1.30;56.90
27114;DHT22;14648;49.730;8.614;2023-12-04T12:38:35;1.30;57.60
27114;DHT22;14648;49.730;8.614;2023-12-04T12:41:01;1.20;56.90
27114;DHT22;14648;49.730;8.614;2023-12-04T12:43:32;1.20;57.00
27114;DHT22;14648;49.730;8.614;2023-12-04T12:45:59;1.30;57.10
27114;DHT22;14648;49.730;8.614;2023-12-04T12:48:27;1.30;57.10
27114;DHT22;14648;49.730;8.614;2023-12-04T12:50:54;1.30;57.10
27114;DHT22;14648;49.730;8.614;2023-12-04T12:53:20;1.30;57.00
27114;DHT22;14648;49.730;8.614;2023-12-04T12:55:48;1.30;57.10
27114;DHT22;14648;49.730;8.614;2023-12-04T12:58:14;1.30;57.10
27114;DHT22;14648;49.730;8.614;2023-12-04T13:00:46;1.30;57.10
27114;DHT22;14648;49.730;8.614;2023-12-04T13:03:19;1.30;57.10
27114;DHT22;14648;49.730;8.614;2023-12-04T13:05:46;1.30;57.10
27114;DHT22;14648;49.730;8.614;2023-12-04T13:08:13;1.40;57.10
27114;DHT22;14648;49.730;8.614;2023-12-04T13:10:40;1.40;57.10
27114;DHT22;14648;49.730;8.614;2023-12-04T13:13:13;1.40;57.10
27114;DHT22;14648;49.730;8.614;2023-12-04T13:15:40;1.30;57.10
27114;DHT22;14648;49.730;8.614;2023-12-04T13:18:07;1.30;57.10
27114;DHT22;14648;49.730;8.614;2023-12-04T13:20:33;1.30;58.00
27114;DHT22;14648;49.730;8.614;2023-12-04T13:23:00;1.20;57.30
27114;DHT22;14648;49.730;8.614;2023-12-04T13:25:26;1.20;57.40
27114;DHT22;14648;49.730;8.614;2023-12-04T13:27:53;1.20;57.40
27114;DHT22;14648;49.730;8.614;2023-12-04T13:30:19;1.20;57.50
27114;DHT22;14648;49.730;8.614;2023-12-04T13:32:45;1.20;57.40
27114;DHT22;14648;49.730;8.614;2023-12-04T13:35:11;1.20;57.40
27114;DHT22;14648;49.730;8.614;2023-12-04T13:37:38;1.20;57.50
27114;DHT22;14648;49.730;8.614;2023-12-04T13:40:05;1.20;57.50
27114;DHT22;14648;49.730;8.614;2023-12-04T13:42:32;1.20;57.50
27114;DHT22;14648;49.730;8.614;2023-12-04T13:45:17;1.30;57.60
27114;DHT22;14648;49.730;8.614;2023-12-04T13:47:42;1.30;57.50
27114;DHT22;14648;49.730;8.614;2023-12-04T13:50:11;1.30;57.50
27114;DHT22;14648;49.730;8.614;2023-12-04T13:52:37;1.40;57.50
27114;DHT22;14648;49.730;8.614;2023-12-04T13:55:04;1.40;57.40
27114;DHT22;14648;49.730;8.614;2023-12-04T13:57:40;1.40;57.40
27114;DHT22;14648;49.730;8.614;2023-12-04T14:00:35;1.40;57.40
27114;DHT22;14648;49.730;8.614;2023-12-04T14:03:01;1.40;57.40
27114;DHT22;14648;49.730;8.614;2023-12-04T14:05:38;1.40;57.40
27114;DHT22;14648;49.730;8.614;2023-12-04T14:08:04;1.40;57.40
27114;DHT22;14648;49.730;8.614;2023-12-04T14:10:30;1.40;57.40
27114;DHT22;14648;49.730;8.614;2023-12-04T14:12:56;1.40;57.40
27114;DHT22;14648;49.730;8.614;2023-12-04T14:15:22;1.40;57.50
27114;DHT22;14648;49.730;8.614;2023-12-04T14:17:48;1.40;57.60
27114;DHT22;14648;49.730;8.614;2023-12-04T14:20:14;1.50;57.70
27114;DHT22;14648;49.730;8.614;2023-12-04T14:22:45;1.50;57.70
27114;DHT22;14648;49.730;8.614;2023-12-04T14:25:11;1.50;57.70
27114;DHT22;14648;49.730;8.614;2023-12-04T14:27:37;1.50;57.70
27114;DHT22;14648;49.730;8.614;2023-12-04T14:30:10;1.50;57.70
27114;DHT22;14648;49.730;8.614;2023-12-04T14:32:36;1.50;57.70
27114;DHT22;14648;49.730;8.614;2023-12-04T14:35:06;1.50;57.70
27114;DHT22;14648;49.730;8.614;2023-12-04T14:37:33;1.50;57.70
27114;DHT22;14648;49.730;8.614;2023-12-04T14:39:59;1.60;57.70
27114;DHT22;14648;49.730;8.614;2023-12-04T14:42:25;1.50;57.70
27114;DHT22;14648;49.730;8.614;2023-12-04T14:44:51;1.50;57.80
27114;DHT22;14648;49.730;8.614;2023-12-04T14:47:16;1.60;57.80
27114;DHT22;14648;49.730;8.614;2023-12-04T14:49:42;1.50;57.80
27114;DHT22;14648;49.730;8.614;2023-12-04T14:52:08;1.50;57.90
27114;DHT22;14648;49.730;8.614;2023-12-04T14:54:35;1.60;57.90
27114;DHT22;14648;49.730;8.614;2023-12-04T14:57:20;1.50;57.80
27114;DHT22;14648;49.730;8.614;2023-12-04T15:00:05;1.50;57.80
27114;DHT22;14648;49.730;8.614;2023-12-04T15:02:35;1.50;58.00
27114;DHT22;14648;49.730;8.614;2023-12-04T15:05:22;1.60;57.90
27114;DHT22;14648;49.730;8.614;2023-12-04T15:07:50;1.60;57.90
27114;DHT22;14648;49.730;8.614;2023-12-04T15:10:41;1.50;57.90
27114;DHT22;14648;49.730;8.614;2023-12-04T15:13:26;1.50;57.90
27114;DHT22;14648;49.730;8.614;2023-12-04T15:16:07;1.50;57.90
27114;DHT22;14648;49.730;8.614;2023-12-04T15:18:39;1.50;58.00
27114;DHT22;14648;49.730;8.614;2023-12-04T15:21:08;1.50;58.00
27114;DHT22;14648;49.730;8.614;2023-12-04T15:23:34;1.50;58.60
27114;DHT22;14648;49.730;8.614;2023-12-04T15:26:00;1.50;58.00
27114;DHT22;14648;49.730;8.614;2023-12-04T15:28:27;1.50;58.00
27114;DHT22;14648;49.730;8.614;2023-12-04T15:30:53;1.60;58.10
27114;DHT22;14648;49.730;8.614;2023-12-04T15:33:21;1.60;58.00
27114;DHT22;14648;49.730;8.614;2023-12-04T15:35:51;1.60;58.00
27114;DHT22;14648;49.730;8.614;2023-12-04T15:38:18;1.60;58.00